sensor_id;sensor_type;location;lat;lon;timestamp;P1;durP1;ratioP1;P2;durP2;ratioP2
71622;SDS011;59473;53.214;5.728;2022-12-11T00:01:14;246.23;;;24.77;;
71622;SDS011;59473;53.214;5.728;2022-12-11T00:03:39;252.13;;;24.75;;
71622;SDS011;59473;53.214;5.728;2022-12-11T00:06:05;220.47;;;24.53;;
71622;SDS011;59473;53.214;5.728;2022-12-11T00:08:31;221.50;;;25.70;;
71622;SDS011;59473;53.214;5.728;2022-12-11T00:10:56;239.25;;;25.38;;
71622;SDS011;59473;53.214;5.728;2022-12-11T00:13:22;186.63;;;24.10;;
71622;SDS011;59473;53.214;5.728;2022-12-11T00:15:47;233.87;;;25.67;;
71622;SDS011;59473;53.214;5.728;2022-12-11T00:18:12;221.80;;;23.63;;
71622;SDS011;59473;53.214;5.728;2022-12-11T00:20:38;192.50;;;22.77;;
71622;SDS011;59473;53.214;5.728;2022-12-11T00:23:03;174.77;;;23.27;;
71622;SDS011;59473;53.214;5.728;2022-12-11T00:25:29;172.17;;;23.00;;
71622;SDS011;59473;53.214;5.728;2022-12-11T00:27:54;202.47;;;24.13;;
71622;SDS011;59473;53.214;5.728;2022-12-11T00:30:19;168.03;;;22.90;;
71622;SDS011;59473;53.214;5.728;2022-12-11T00:32:44;182.67;;;24.70;;
71622;SDS011;59473;53.214;5.728;2022-12-11T00:35:10;166.80;;;24.57;;
71622;SDS011;59473;53.214;5.728;2022-12-11T00:37:35;165.27;;;23.53;;
71622;SDS011;59473;53.214;5.728;2022-12-11T00:40:00;140.00;;;23.23;;
71622;SDS011;59473;53.214;5.728;2022-12-11T00:42:25;174.73;;;25.00;;
71622;SDS011;59473;53.214;5.728;2022-12-11T00:44:51;180.90;;;24.77;;
71622;SDS011;59473;53.214;5.728;2022-12-11T00:47:16;160.77;;;23.67;;
71622;SDS011;59473;53.214;5.728;2022-12-11T00:49:41;177.57;;;25.27;;
71622;SDS011;59473;53.214;5.728;2022-12-11T00:52:06;171.47;;;22.07;;
71622;SDS011;59473;53.214;5.728;2022-12-11T00:54:32;166.13;;;23.00;;
71622;SDS011;59473;53.214;5.728;2022-12-11T00:56:57;155.20;;;22.20;;
71622;SDS011;59473;53.214;5.728;2022-12-11T00:59:23;161.00;;;24.30;;
71622;SDS011;59473;53.214;5.728;2022-12-11T01:01:48;123.03;;;20.03;;
71622;SDS011;59473;53.214;5.728;2022-12-11T01:04:13;157.27;;;23.70;;
71622;SDS011;59473;53.214;5.728;2022-12-11T01:06:39;145.63;;;23.10;;
71622;SDS011;59473;53.214;5.728;2022-12-11T01:09:04;190.67;;;25.33;;
71622;SDS011;59473;53.214;5.728;2022-12-11T01:11:48;151.57;;;23.05;;
71622;SDS011;59473;53.214;5.728;2022-12-11T01:14:13;160.27;;;22.17;;
71622;SDS011;59473;53.214;5.728;2022-12-11T01:16:38;192.63;;;24.93;;
71622;SDS011;59473;53.214;5.728;2022-12-11T01:19:03;150.87;;;22.47;;
71622;SDS011;59473;53.214;5.728;2022-12-11T01:21:29;159.47;;;22.77;;
71622;SDS011;59473;53.214;5.728;2022-12-11T01:23:54;164.87;;;23.00;;
71622;SDS011;59473;53.214;5.728;2022-12-11T01:26:19;153.70;;;23.07;;
71622;SDS011;59473;53.214;5.728;2022-12-11T01:28:48;151.07;;;23.73;;
71622;SDS011;59473;53.214;5.728;2022-12-11T01:31:14;147.77;;;22.50;;
71622;SDS011;59473;53.214;5.728;2022-12-11T01:33:39;152.40;;;24.70;;
71622;SDS011;59473;53.214;5.728;2022-12-11T01:38:33;144.37;;;24.27;;
71622;SDS011;59473;53.214;5.728;2022-12-11T01:40:58;158.50;;;23.73;;
71622;SDS011;59473;53.214;5.728;2022-12-11T01:43:24;133.57;;;21.87;;
71622;SDS011;59473;53.214;5.728;2022-12-11T01:45:49;139.03;;;21.50;;
71622;SDS011;59473;53.214;5.728;2022-12-11T01:48:36;141.17;;;22.03;;
71622;SDS011;59473;53.214;5.728;2022-12-11T01:51:00;146.97;;;23.43;;
71622;SDS011;59473;53.214;5.728;2022-12-11T01:53:36;120.75;;;20.50;;
71622;SDS011;59473;53.214;5.728;2022-12-11T01:56:02;142.57;;;24.23;;
71622;SDS011;59473;53.214;5.728;2022-12-11T01:58:29;141.32;;;22.95;;
71622;SDS011;59473;53.214;5.728;2022-12-11T02:00:56;118.00;;;21.57;;
71622;SDS011;59473;53.214;5.728;2022-12-11T02:03:22;149.13;;;23.30;;
71622;SDS011;59473;53.214;5.728;2022-12-11T02:05:47;161.63;;;23.77;;
71622;SDS011;59473;53.214;5.728;2022-12-11T02:08:12;141.20;;;24.13;;
71622;SDS011;59473;53.214;5.728;2022-12-11T02:13:12;126.63;;;21.55;;
71622;SDS011;59473;53.214;5.728;2022-12-11T02:15:44;116.47;;;21.23;;
71622;SDS011;59473;53.214;5.728;2022-12-11T02:18:19;133.05;;;23.10;;
71622;SDS011;59473;53.214;5.728;2022-12-11T02:20:57;138.18;;;24.25;;
71622;SDS011;59473;53.214;5.728;2022-12-11T02:26:06;143.30;;;22.70;;
71622;SDS011;59473;53.214;5.728;2022-12-11T02:28:44;126.10;;;25.40;;
71622;SDS011;59473;53.214;5.728;2022-12-11T02:33:53;131.20;;;25.75;;
71622;SDS011;59473;53.214;5.728;2022-12-11T02:36:22;129.87;;;23.57;;
71622;SDS011;59473;53.214;5.728;2022-12-11T02:38:49;114.55;;;27.40;;
71622;SDS011;59473;53.214;5.728;2022-12-11T02:41:16;117.15;;;23.65;;
71622;SDS011;59473;53.214;5.728;2022-12-11T02:43:42;124.30;;;24.58;;
71622;SDS011;59473;53.214;5.728;2022-12-11T02:46:08;131.60;;;23.73;;
71622;SDS011;59473;53.214;5.728;2022-12-11T02:48:33;126.95;;;23.73;;
71622;SDS011;59473;53.214;5.728;2022-12-11T02:51:00;128.47;;;23.03;;
71622;SDS011;59473;53.214;5.728;2022-12-11T02:53:27;137.35;;;29.17;;
71622;SDS011;59473;53.214;5.728;2022-12-11T02:55:56;141.25;;;25.67;;
71622;SDS011;59473;53.214;5.728;2022-12-11T02:58:25;143.70;;;27.63;;
71622;SDS011;59473;53.214;5.728;2022-12-11T03:00:51;131.40;;;24.90;;
71622;SDS011;59473;53.214;5.728;2022-12-11T03:03:16;144.27;;;28.03;;
71622;SDS011;59473;53.214;5.728;2022-12-11T03:05:41;135.67;;;24.10;;
71622;SDS011;59473;53.214;5.728;2022-12-11T03:08:06;131.30;;;24.47;;
71622;SDS011;59473;53.214;5.728;2022-12-11T03:10:32;134.57;;;24.23;;
71622;SDS011;59473;53.214;5.728;2022-12-11T03:12:57;145.30;;;24.90;;
71622;SDS011;59473;53.214;5.728;2022-12-11T03:15:27;116.97;;;23.15;;
71622;SDS011;59473;53.214;5.728;2022-12-11T03:25:31;151.85;;;24.90;;
71622;SDS011;59473;53.214;5.728;2022-12-11T03:28:08;169.05;;;26.50;;
71622;SDS011;59473;53.214;5.728;2022-12-11T03:30:34;137.73;;;24.60;;
71622;SDS011;59473;53.214;5.728;2022-12-11T03:33:05;171.13;;;27.77;;
71622;SDS011;59473;53.214;5.728;2022-12-11T03:35:37;152.82;;;23.98;;
71622;SDS011;59473;53.214;5.728;2022-12-11T03:38:05;166.93;;;25.15;;
71622;SDS011;59473;53.214;5.728;2022-12-11T03:40:32;192.07;;;27.98;;
71622;SDS011;59473;53.214;5.728;2022-12-11T03:42:59;157.27;;;25.50;;
71622;SDS011;59473;53.214;5.728;2022-12-11T03:45:25;188.20;;;26.08;;
71622;SDS011;59473;53.214;5.728;2022-12-11T03:47:51;166.10;;;23.70;;
71622;SDS011;59473;53.214;5.728;2022-12-11T03:50:17;155.50;;;26.30;;
71622;SDS011;59473;53.214;5.728;2022-12-11T03:52:44;183.25;;;24.98;;
71622;SDS011;59473;53.214;5.728;2022-12-11T03:55:12;186.23;;;24.30;;
71622;SDS011;59473;53.214;5.728;2022-12-11T03:57:37;205.73;;;29.07;;
71622;SDS011;59473;53.214;5.728;2022-12-11T04:00:07;189.13;;;27.10;;
71622;SDS011;59473;53.214;5.728;2022-12-11T04:02:32;217.48;;;27.13;;
71622;SDS011;59473;53.214;5.728;2022-12-11T04:04:57;190.97;;;28.03;;
71622;SDS011;59473;53.214;5.728;2022-12-11T04:07:23;185.40;;;24.70;;
71622;SDS011;59473;53.214;5.728;2022-12-11T04:09:48;209.83;;;30.17;;
71622;SDS011;59473;53.214;5.728;2022-12-11T04:12:13;242.67;;;40.97;;
71622;SDS011;59473;53.214;5.728;2022-12-11T04:14:39;187.97;;;29.13;;
71622;SDS011;59473;53.214;5.728;2022-12-11T04:17:23;206.40;;;28.38;;
71622;SDS011;59473;53.214;5.728;2022-12-11T04:20:07;184.05;;;26.73;;
71622;SDS011;59473;53.214;5.728;2022-12-11T04:22:50;182.80;;;27.17;;
71622;SDS011;59473;53.214;5.728;2022-12-11T04:25:34;193.48;;;25.15;;
71622;SDS011;59473;53.214;5.728;2022-12-11T04:27:59;184.30;;;25.30;;
71622;SDS011;59473;53.214;5.728;2022-12-11T04:30:25;209.63;;;27.83;;
71622;SDS011;59473;53.214;5.728;2022-12-11T04:32:51;197.20;;;27.60;;
71622;SDS011;59473;53.214;5.728;2022-12-11T04:35:16;201.82;;;26.98;;
71622;SDS011;59473;53.214;5.728;2022-12-11T04:37:42;215.80;;;29.07;;
71622;SDS011;59473;53.214;5.728;2022-12-11T04:40:08;187.17;;;26.10;;
71622;SDS011;59473;53.214;5.728;2022-12-11T04:42:34;213.05;;;28.17;;
71622;SDS011;59473;53.214;5.728;2022-12-11T04:44:59;168.70;;;25.73;;
71622;SDS011;59473;53.214;5.728;2022-12-11T04:47:24;216.83;;;28.80;;
71622;SDS011;59473;53.214;5.728;2022-12-11T04:49:50;194.80;;;28.67;;
71622;SDS011;59473;53.214;5.728;2022-12-11T04:52:16;194.50;;;33.97;;
71622;SDS011;59473;53.214;5.728;2022-12-11T04:54:41;195.23;;;28.60;;
71622;SDS011;59473;53.214;5.728;2022-12-11T04:57:06;177.30;;;25.00;;
71622;SDS011;59473;53.214;5.728;2022-12-11T04:59:32;211.33;;;35.90;;
71622;SDS011;59473;53.214;5.728;2022-12-11T05:01:57;180.10;;;28.33;;
71622;SDS011;59473;53.214;5.728;2022-12-11T05:04:22;155.63;;;25.53;;
71622;SDS011;59473;53.214;5.728;2022-12-11T05:06:48;181.50;;;27.90;;
71622;SDS011;59473;53.214;5.728;2022-12-11T05:09:13;174.13;;;26.80;;
71622;SDS011;59473;53.214;5.728;2022-12-11T05:11:39;190.27;;;26.40;;
71622;SDS011;59473;53.214;5.728;2022-12-11T05:14:04;159.67;;;26.03;;
71622;SDS011;59473;53.214;5.728;2022-12-11T05:16:29;173.13;;;24.73;;
71622;SDS011;59473;53.214;5.728;2022-12-11T05:18:54;198.00;;;27.40;;
71622;SDS011;59473;53.214;5.728;2022-12-11T05:21:20;175.93;;;25.80;;
71622;SDS011;59473;53.214;5.728;2022-12-11T05:23:45;192.97;;;28.97;;
71622;SDS011;59473;53.214;5.728;2022-12-11T05:26:11;170.60;;;27.03;;
71622;SDS011;59473;53.214;5.728;2022-12-11T05:28:37;182.00;;;28.00;;
71622;SDS011;59473;53.214;5.728;2022-12-11T05:31:04;171.10;;;26.92;;
71622;SDS011;59473;53.214;5.728;2022-12-11T05:33:30;174.03;;;26.57;;
71622;SDS011;59473;53.214;5.728;2022-12-11T05:35:55;187.05;;;26.65;;
71622;SDS011;59473;53.214;5.728;2022-12-11T05:38:21;181.87;;;24.93;;
71622;SDS011;59473;53.214;5.728;2022-12-11T05:43:21;175.35;;;28.35;;
71622;SDS011;59473;53.214;5.728;2022-12-11T05:45:46;150.27;;;23.97;;
71622;SDS011;59473;53.214;5.728;2022-12-11T05:48:11;178.53;;;28.33;;
71622;SDS011;59473;53.214;5.728;2022-12-11T05:50:36;178.57;;;30.73;;
71622;SDS011;59473;53.214;5.728;2022-12-11T05:53:01;154.67;;;27.07;;
71622;SDS011;59473;53.214;5.728;2022-12-11T05:55:28;162.32;;;26.50;;
71622;SDS011;59473;53.214;5.728;2022-12-11T05:57:53;177.83;;;35.10;;
71622;SDS011;59473;53.214;5.728;2022-12-11T06:00:19;156.73;;;27.17;;
71622;SDS011;59473;53.214;5.728;2022-12-11T06:02:44;180.27;;;29.20;;
71622;SDS011;59473;53.214;5.728;2022-12-11T06:05:09;295.93;;;64.13;;
71622;SDS011;59473;53.214;5.728;2022-12-11T06:07:34;208.73;;;42.90;;
71622;SDS011;59473;53.214;5.728;2022-12-11T06:09:59;183.43;;;32.70;;
71622;SDS011;59473;53.214;5.728;2022-12-11T06:12:25;178.70;;;30.90;;
71622;SDS011;59473;53.214;5.728;2022-12-11T06:14:50;187.17;;;47.87;;
71622;SDS011;59473;53.214;5.728;2022-12-11T06:17:15;161.40;;;34.80;;
71622;SDS011;59473;53.214;5.728;2022-12-11T06:19:40;158.70;;;31.57;;
71622;SDS011;59473;53.214;5.728;2022-12-11T06:22:05;174.77;;;30.73;;
71622;SDS011;59473;53.214;5.728;2022-12-11T06:24:31;198.57;;;44.63;;
71622;SDS011;59473;53.214;5.728;2022-12-11T06:26:56;202.80;;;45.70;;
71622;SDS011;59473;53.214;5.728;2022-12-11T06:29:21;165.10;;;29.63;;
71622;SDS011;59473;53.214;5.728;2022-12-11T06:31:46;177.57;;;30.57;;
71622;SDS011;59473;53.214;5.728;2022-12-11T06:34:12;158.37;;;24.87;;
71622;SDS011;59473;53.214;5.728;2022-12-11T06:36:37;162.90;;;24.33;;
71622;SDS011;59473;53.214;5.728;2022-12-11T06:39:03;161.23;;;23.57;;
71622;SDS011;59473;53.214;5.728;2022-12-11T06:41:28;142.20;;;22.42;;
71622;SDS011;59473;53.214;5.728;2022-12-11T06:43:53;176.73;;;25.35;;
71622;SDS011;59473;53.214;5.728;2022-12-11T06:46:19;154.17;;;24.07;;
71622;SDS011;59473;53.214;5.728;2022-12-11T06:48:44;165.50;;;23.83;;
71622;SDS011;59473;53.214;5.728;2022-12-11T06:51:14;157.87;;;25.37;;
71622;SDS011;59473;53.214;5.728;2022-12-11T06:53:39;151.35;;;24.40;;
71622;SDS011;59473;53.214;5.728;2022-12-11T06:56:06;155.88;;;22.95;;
71622;SDS011;59473;53.214;5.728;2022-12-11T06:58:35;145.73;;;25.17;;
71622;SDS011;59473;53.214;5.728;2022-12-11T07:01:01;144.02;;;24.98;;
71622;SDS011;59473;53.214;5.728;2022-12-11T07:03:26;167.77;;;25.90;;
71622;SDS011;59473;53.214;5.728;2022-12-11T07:05:52;139.73;;;24.15;;
71622;SDS011;59473;53.214;5.728;2022-12-11T07:08:17;158.50;;;24.93;;
71622;SDS011;59473;53.214;5.728;2022-12-11T07:10:42;138.50;;;24.07;;
71622;SDS011;59473;53.214;5.728;2022-12-11T07:13:07;146.43;;;23.63;;
71622;SDS011;59473;53.214;5.728;2022-12-11T07:15:33;136.30;;;24.83;;
71622;SDS011;59473;53.214;5.728;2022-12-11T07:17:59;163.00;;;24.97;;
71622;SDS011;59473;53.214;5.728;2022-12-11T07:20:24;169.05;;;25.05;;
71622;SDS011;59473;53.214;5.728;2022-12-11T07:22:49;154.88;;;25.10;;
71622;SDS011;59473;53.214;5.728;2022-12-11T07:25:14;145.18;;;24.13;;
71622;SDS011;59473;53.214;5.728;2022-12-11T07:27:40;155.30;;;25.17;;
71622;SDS011;59473;53.214;5.728;2022-12-11T07:30:05;136.75;;;24.05;;
71622;SDS011;59473;53.214;5.728;2022-12-11T07:32:31;131.23;;;22.87;;
71622;SDS011;59473;53.214;5.728;2022-12-11T07:34:56;145.07;;;24.80;;
71622;SDS011;59473;53.214;5.728;2022-12-11T07:37:21;149.47;;;24.90;;
71622;SDS011;59473;53.214;5.728;2022-12-11T07:39:46;175.23;;;27.37;;
71622;SDS011;59473;53.214;5.728;2022-12-11T07:42:13;145.70;;;24.00;;
71622;SDS011;59473;53.214;5.728;2022-12-11T07:44:38;153.87;;;23.90;;
71622;SDS011;59473;53.214;5.728;2022-12-11T07:47:03;173.40;;;25.60;;
71622;SDS011;59473;53.214;5.728;2022-12-11T07:49:28;176.13;;;25.57;;
71622;SDS011;59473;53.214;5.728;2022-12-11T07:51:54;155.27;;;24.50;;
71622;SDS011;59473;53.214;5.728;2022-12-11T07:54:19;183.50;;;28.37;;
71622;SDS011;59473;53.214;5.728;2022-12-11T07:56:46;158.50;;;25.90;;
71622;SDS011;59473;53.214;5.728;2022-12-11T07:59:12;154.67;;;25.00;;
71622;SDS011;59473;53.214;5.728;2022-12-11T08:01:38;166.60;;;24.88;;
71622;SDS011;59473;53.214;5.728;2022-12-11T08:04:04;137.50;;;23.30;;
71622;SDS011;59473;53.214;5.728;2022-12-11T08:06:31;182.10;;;26.10;;
71622;SDS011;59473;53.214;5.728;2022-12-11T08:08:57;161.80;;;26.08;;
71622;SDS011;59473;53.214;5.728;2022-12-11T08:11:23;173.15;;;25.65;;
71622;SDS011;59473;53.214;5.728;2022-12-11T08:13:49;221.80;;;39.55;;
71622;SDS011;59473;53.214;5.728;2022-12-11T08:16:15;222.00;;;44.23;;
71622;SDS011;59473;53.214;5.728;2022-12-11T08:18:41;188.35;;;29.45;;
71622;SDS011;59473;53.214;5.728;2022-12-11T08:21:08;217.93;;;37.37;;
71622;SDS011;59473;53.214;5.728;2022-12-11T08:23:34;169.23;;;28.88;;
71622;SDS011;59473;53.214;5.728;2022-12-11T08:26:03;186.63;;;34.93;;
71622;SDS011;59473;53.214;5.728;2022-12-11T08:28:29;165.23;;;25.52;;
71622;SDS011;59473;53.214;5.728;2022-12-11T08:30:55;168.63;;;29.33;;
71622;SDS011;59473;53.214;5.728;2022-12-11T08:33:20;157.15;;;27.65;;
71622;SDS011;59473;53.214;5.728;2022-12-11T08:35:45;148.52;;;26.05;;
71622;SDS011;59473;53.214;5.728;2022-12-11T08:38:11;181.17;;;28.37;;
71622;SDS011;59473;53.214;5.728;2022-12-11T08:40:36;148.83;;;26.50;;
71622;SDS011;59473;53.214;5.728;2022-12-11T08:43:01;144.80;;;25.37;;
71622;SDS011;59473;53.214;5.728;2022-12-11T08:45:27;149.10;;;26.93;;
71622;SDS011;59473;53.214;5.728;2022-12-11T08:47:52;167.17;;;29.70;;
71622;SDS011;59473;53.214;5.728;2022-12-11T08:50:18;133.75;;;24.17;;
71622;SDS011;59473;53.214;5.728;2022-12-11T08:52:43;131.67;;;22.40;;
71622;SDS011;59473;53.214;5.728;2022-12-11T08:55:08;157.23;;;29.13;;
71622;SDS011;59473;53.214;5.728;2022-12-11T08:57:33;141.43;;;26.70;;
71622;SDS011;59473;53.214;5.728;2022-12-11T08:59:58;160.73;;;26.20;;
71622;SDS011;59473;53.214;5.728;2022-12-11T09:02:24;156.33;;;26.13;;
71622;SDS011;59473;53.214;5.728;2022-12-11T09:04:49;139.33;;;25.57;;
71622;SDS011;59473;53.214;5.728;2022-12-11T09:07:14;145.13;;;27.13;;
71622;SDS011;59473;53.214;5.728;2022-12-11T09:09:39;142.00;;;25.63;;
71622;SDS011;59473;53.214;5.728;2022-12-11T09:12:05;147.47;;;27.37;;
71622;SDS011;59473;53.214;5.728;2022-12-11T09:14:30;150.03;;;29.17;;
71622;SDS011;59473;53.214;5.728;2022-12-11T09:16:55;133.10;;;25.77;;
71622;SDS011;59473;53.214;5.728;2022-12-11T09:22:26;143.40;;;25.40;;
71622;SDS011;59473;53.214;5.728;2022-12-11T09:24:51;174.53;;;38.47;;
71622;SDS011;59473;53.214;5.728;2022-12-11T09:27:16;218.53;;;55.67;;
71622;SDS011;59473;53.214;5.728;2022-12-11T09:29:43;121.53;;;24.73;;
71622;SDS011;59473;53.214;5.728;2022-12-11T09:32:09;127.00;;;25.07;;
71622;SDS011;59473;53.214;5.728;2022-12-11T09:34:34;127.03;;;25.60;;
71622;SDS011;59473;53.214;5.728;2022-12-11T09:36:59;131.40;;;24.20;;
71622;SDS011;59473;53.214;5.728;2022-12-11T09:39:24;128.63;;;21.80;;
71622;SDS011;59473;53.214;5.728;2022-12-11T09:44:17;125.80;;;23.57;;
71622;SDS011;59473;53.214;5.728;2022-12-11T09:46:43;118.38;;;23.40;;
71622;SDS011;59473;53.214;5.728;2022-12-11T09:49:19;134.77;;;24.50;;
71622;SDS011;59473;53.214;5.728;2022-12-11T09:51:48;108.78;;;22.42;;
71622;SDS011;59473;53.214;5.728;2022-12-11T09:54:15;113.83;;;22.90;;
71622;SDS011;59473;53.214;5.728;2022-12-11T09:56:41;121.43;;;22.42;;
71622;SDS011;59473;53.214;5.728;2022-12-11T09:59:18;120.73;;;22.50;;
71622;SDS011;59473;53.214;5.728;2022-12-11T10:06:54;99.55;;;22.10;;
71622;SDS011;59473;53.214;5.728;2022-12-11T10:09:27;94.05;;;21.15;;
71622;SDS011;59473;53.214;5.728;2022-12-11T10:16:48;91.53;;;22.02;;
71622;SDS011;59473;53.214;5.728;2022-12-11T10:19:22;96.22;;;25.13;;
71622;SDS011;59473;53.214;5.728;2022-12-11T10:21:48;93.97;;;23.17;;
71622;SDS011;59473;53.214;5.728;2022-12-11T10:26:58;83.33;;;23.73;;
71622;SDS011;59473;53.214;5.728;2022-12-11T10:29:24;76.32;;;20.55;;
71622;SDS011;59473;53.214;5.728;2022-12-11T10:31:51;84.60;;;23.80;;
71622;SDS011;59473;53.214;5.728;2022-12-11T10:34:20;95.65;;;24.58;;
71622;SDS011;59473;53.214;5.728;2022-12-11T10:36:49;84.50;;;21.00;;
71622;SDS011;59473;53.214;5.728;2022-12-11T10:39:15;84.33;;;22.07;;
71622;SDS011;59473;53.214;5.728;2022-12-11T10:41:42;92.60;;;21.38;;
71622;SDS011;59473;53.214;5.728;2022-12-11T10:44:13;90.73;;;22.20;;
71622;SDS011;59473;53.214;5.728;2022-12-11T10:46:38;94.75;;;21.58;;
71622;SDS011;59473;53.214;5.728;2022-12-11T10:49:03;84.60;;;22.93;;
71622;SDS011;59473;53.214;5.728;2022-12-11T10:54:01;85.57;;;22.35;;
71622;SDS011;59473;53.214;5.728;2022-12-11T10:56:28;95.72;;;22.95;;
71622;SDS011;59473;53.214;5.728;2022-12-11T10:58:53;92.17;;;23.30;;
71622;SDS011;59473;53.214;5.728;2022-12-11T11:01:20;100.10;;;24.75;;
71622;SDS011;59473;53.214;5.728;2022-12-11T11:06:23;86.20;;;22.52;;
71622;SDS011;59473;53.214;5.728;2022-12-11T11:08:50;86.55;;;22.85;;
71622;SDS011;59473;53.214;5.728;2022-12-11T11:11:28;79.00;;;22.70;;
71622;SDS011;59473;53.214;5.728;2022-12-11T11:14:06;84.03;;;22.57;;
71622;SDS011;59473;53.214;5.728;2022-12-11T11:16:33;88.43;;;23.73;;
71622;SDS011;59473;53.214;5.728;2022-12-11T11:18:59;78.95;;;23.08;;
71622;SDS011;59473;53.214;5.728;2022-12-11T11:21:24;84.57;;;23.73;;
71622;SDS011;59473;53.214;5.728;2022-12-11T11:23:51;98.10;;;24.23;;
71622;SDS011;59473;53.214;5.728;2022-12-11T11:26:17;99.07;;;25.00;;
71622;SDS011;59473;53.214;5.728;2022-12-11T11:28:47;94.93;;;25.98;;
71622;SDS011;59473;53.214;5.728;2022-12-11T11:31:13;85.68;;;23.50;;
71622;SDS011;59473;53.214;5.728;2022-12-11T11:33:55;97.18;;;26.92;;
71622;SDS011;59473;53.214;5.728;2022-12-11T11:36:23;79.23;;;23.17;;
71622;SDS011;59473;53.214;5.728;2022-12-11T11:38:50;79.10;;;23.92;;
71622;SDS011;59473;53.214;5.728;2022-12-11T11:41:19;76.20;;;23.33;;
71622;SDS011;59473;53.214;5.728;2022-12-11T11:46:18;71.60;;;24.30;;
71622;SDS011;59473;53.214;5.728;2022-12-11T11:48:48;82.10;;;25.17;;
71622;SDS011;59473;53.214;5.728;2022-12-11T11:51:18;70.70;;;23.10;;
71622;SDS011;59473;53.214;5.728;2022-12-11T11:53:47;71.45;;;22.98;;
71622;SDS011;59473;53.214;5.728;2022-12-11T11:56:20;73.30;;;23.60;;
71622;SDS011;59473;53.214;5.728;2022-12-11T11:59:00;67.07;;;20.58;;
71622;SDS011;59473;53.214;5.728;2022-12-11T12:01:27;63.35;;;21.88;;
71622;SDS011;59473;53.214;5.728;2022-12-11T12:03:53;63.60;;;22.37;;
71622;SDS011;59473;53.214;5.728;2022-12-11T12:06:30;68.15;;;23.10;;
71622;SDS011;59473;53.214;5.728;2022-12-11T12:11:56;60.83;;;21.15;;
71622;SDS011;59473;53.214;5.728;2022-12-11T12:21:54;61.23;;;23.33;;
71622;SDS011;59473;53.214;5.728;2022-12-11T12:24:40;63.97;;;20.90;;
71622;SDS011;59473;53.214;5.728;2022-12-11T12:27:17;59.72;;;22.20;;
71622;SDS011;59473;53.214;5.728;2022-12-11T12:29:47;58.90;;;22.38;;
71622;SDS011;59473;53.214;5.728;2022-12-11T12:32:22;59.45;;;21.65;;
71622;SDS011;59473;53.214;5.728;2022-12-11T12:37:44;53.73;;;20.77;;
71622;SDS011;59473;53.214;5.728;2022-12-11T12:42:49;58.20;;;21.55;;
71622;SDS011;59473;53.214;5.728;2022-12-11T12:47:51;49.80;;;20.77;;
71622;SDS011;59473;53.214;5.728;2022-12-11T12:50:18;49.67;;;20.03;;
71622;SDS011;59473;53.214;5.728;2022-12-11T12:52:43;50.55;;;19.83;;
71622;SDS011;59473;53.214;5.728;2022-12-11T12:57:37;53.38;;;21.10;;
71622;SDS011;59473;53.214;5.728;2022-12-11T13:00:04;62.15;;;23.27;;
71622;SDS011;59473;53.214;5.728;2022-12-11T13:02:31;59.23;;;23.53;;
71622;SDS011;59473;53.214;5.728;2022-12-11T13:04:57;57.50;;;22.05;;
71622;SDS011;59473;53.214;5.728;2022-12-11T13:07:25;51.33;;;21.63;;
71622;SDS011;59473;53.214;5.728;2022-12-11T13:10:06;56.92;;;21.35;;
71622;SDS011;59473;53.214;5.728;2022-12-11T13:12:33;50.85;;;20.95;;
71622;SDS011;59473;53.214;5.728;2022-12-11T13:15:04;51.03;;;20.48;;
71622;SDS011;59473;53.214;5.728;2022-12-11T13:17:37;58.87;;;22.87;;
71622;SDS011;59473;53.214;5.728;2022-12-11T13:20:10;50.35;;;19.85;;
71622;SDS011;59473;53.214;5.728;2022-12-11T13:22:45;56.40;;;22.58;;
71622;SDS011;59473;53.214;5.728;2022-12-11T13:25:19;109.57;;;36.07;;
71622;SDS011;59473;53.214;5.728;2022-12-11T13:27:45;69.22;;;25.42;;
71622;SDS011;59473;53.214;5.728;2022-12-11T13:32:38;71.82;;;28.65;;
71622;SDS011;59473;53.214;5.728;2022-12-11T13:35:05;57.83;;;23.92;;
71622;SDS011;59473;53.214;5.728;2022-12-11T13:37:40;56.53;;;21.77;;
71622;SDS011;59473;53.214;5.728;2022-12-11T13:40:18;49.30;;;20.23;;
71622;SDS011;59473;53.214;5.728;2022-12-11T13:42:51;53.37;;;21.17;;
71622;SDS011;59473;53.214;5.728;2022-12-11T13:45:25;53.63;;;21.23;;
71622;SDS011;59473;53.214;5.728;2022-12-11T13:47:52;58.10;;;21.15;;
71622;SDS011;59473;53.214;5.728;2022-12-11T13:50:20;52.70;;;20.70;;
71622;SDS011;59473;53.214;5.728;2022-12-11T13:52:56;51.47;;;20.35;;
71622;SDS011;59473;53.214;5.728;2022-12-11T13:55:26;54.13;;;21.80;;
71622;SDS011;59473;53.214;5.728;2022-12-11T13:57:51;50.95;;;20.25;;
71622;SDS011;59473;53.214;5.728;2022-12-11T14:00:26;44.10;;;18.70;;
71622;SDS011;59473;53.214;5.728;2022-12-11T14:02:53;48.33;;;20.52;;
71622;SDS011;59473;53.214;5.728;2022-12-11T14:05:20;56.85;;;20.58;;
71622;SDS011;59473;53.214;5.728;2022-12-11T14:07:46;53.90;;;21.23;;
71622;SDS011;59473;53.214;5.728;2022-12-11T14:12:38;50.00;;;19.70;;
71622;SDS011;59473;53.214;5.728;2022-12-11T14:15:10;50.10;;;19.95;;
71622;SDS011;59473;53.214;5.728;2022-12-11T14:17:38;51.40;;;21.27;;
71622;SDS011;59473;53.214;5.728;2022-12-11T14:20:05;53.00;;;20.40;;
71622;SDS011;59473;53.214;5.728;2022-12-11T14:22:36;50.95;;;20.05;;
71622;SDS011;59473;53.214;5.728;2022-12-11T14:25:15;51.43;;;20.00;;
71622;SDS011;59473;53.214;5.728;2022-12-11T14:27:45;50.60;;;19.60;;
71622;SDS011;59473;53.214;5.728;2022-12-11T14:30:11;51.25;;;19.65;;
71622;SDS011;59473;53.214;5.728;2022-12-11T14:32:38;59.10;;;20.17;;
71622;SDS011;59473;53.214;5.728;2022-12-11T14:35:11;54.97;;;20.50;;
71622;SDS011;59473;53.214;5.728;2022-12-11T14:37:40;53.80;;;20.23;;
71622;SDS011;59473;53.214;5.728;2022-12-11T14:40:09;63.03;;;21.20;;
71622;SDS011;59473;53.214;5.728;2022-12-11T14:42:40;53.53;;;20.17;;
71622;SDS011;59473;53.214;5.728;2022-12-11T14:45:07;59.25;;;21.30;;
71622;SDS011;59473;53.214;5.728;2022-12-11T14:47:39;57.20;;;21.45;;
71622;SDS011;59473;53.214;5.728;2022-12-11T14:50:11;58.83;;;22.10;;
71622;SDS011;59473;53.214;5.728;2022-12-11T14:52:41;54.55;;;20.83;;
71622;SDS011;59473;53.214;5.728;2022-12-11T14:55:08;56.87;;;20.57;;
71622;SDS011;59473;53.214;5.728;2022-12-11T14:57:34;56.20;;;21.02;;
71622;SDS011;59473;53.214;5.728;2022-12-11T15:00:01;54.50;;;20.33;;
71622;SDS011;59473;53.214;5.728;2022-12-11T15:02:27;52.30;;;20.92;;
71622;SDS011;59473;53.214;5.728;2022-12-11T15:07:37;51.25;;;21.20;;
71622;SDS011;59473;53.214;5.728;2022-12-11T15:10:03;53.30;;;22.05;;
71622;SDS011;59473;53.214;5.728;2022-12-11T15:12:29;58.77;;;21.80;;
71622;SDS011;59473;53.214;5.728;2022-12-11T15:14:57;53.88;;;21.02;;
71622;SDS011;59473;53.214;5.728;2022-12-11T15:17:24;54.60;;;21.55;;
71622;SDS011;59473;53.214;5.728;2022-12-11T15:19:55;76.13;;;27.93;;
71622;SDS011;59473;53.214;5.728;2022-12-11T15:22:21;68.50;;;25.50;;
71622;SDS011;59473;53.214;5.728;2022-12-11T15:24:49;60.10;;;24.00;;
71622;SDS011;59473;53.214;5.728;2022-12-11T15:27:42;70.43;;;25.52;;
71622;SDS011;59473;53.214;5.728;2022-12-11T15:36:23;62.03;;;26.83;;